Terminal Aerodrome Forecast
Issued by NWS

Home | Current Version | Previous Version | Text Only | Print | Product List | Glossary On
Versions: 1 2 3 4 5 6 7 8 9 10 11 12 13 14 15 16 17 18 19 20 21 22 23 24 25 26 27
000
FTUS43 KDDC 160522
TAFHYS
TAF
KHYS 160522Z 1606/1706 14009KT P6SM BKN150
     FM161000 18009KT P6SM VCTS SCT010 BKN035CB
     FM161300 33015G25KT P6SM SCT150
     FM170200 31009KT P6SM FEW200=

USA.gov is the U.S. government's official web portal to all federal, state and local government web resources and services.